createdAt,value
2023-04-10T00:01:22.297Z,31.33
2023-04-10T00:04:24.929Z,30.10
2023-04-10T00:07:27.759Z,30.43
2023-04-10T00:10:30.793Z,33.80
2023-04-10T00:13:34.781Z,31.20
2023-04-10T00:16:37.421Z,31.33
2023-04-10T00:19:40.483Z,31.90
2023-04-10T00:22:43.053Z,33.10
2023-04-10T00:25:45.637Z,30.93
2023-04-10T00:28:49.562Z,32.27
2023-04-10T00:31:52.179Z,28.80
2023-04-10T00:34:55.011Z,32.43
2023-04-10T00:37:57.783Z,32.93
2023-04-10T00:41:00.668Z,30.90
2023-04-10T00:44:04.673Z,31.37
2023-04-10T00:47:07.506Z,30.27
2023-04-10T00:50:11.014Z,36.60
2023-04-10T00:53:13.670Z,33.57
2023-04-10T00:56:16.388Z,31.50
2023-04-10T00:59:20.698Z,34.70
2023-04-10T01:02:23.474Z,32.50
2023-04-10T01:05:32.872Z,31.77
2023-04-10T01:08:46.652Z,33.77
2023-04-10T01:11:54.828Z,32.43
2023-04-10T01:15:05.873Z,32.00
2023-04-10T01:18:15.654Z,32.43
2023-04-10T01:21:18.789Z,34.30
2023-04-10T01:24:41.664Z,36.30
2023-04-10T01:27:52.163Z,36.70
2023-04-10T01:31:00.488Z,33.23
2023-04-10T01:34:08.254Z,34.33
2023-04-10T01:37:16.840Z,31.93
2023-04-10T01:40:22.069Z,32.83
2023-04-10T01:43:27.303Z,32.47
2023-04-10T01:46:33.501Z,48.47
2023-04-10T01:49:42.438Z,33.73
2023-04-10T01:52:46.292Z,33.10
2023-04-10T01:55:49.354Z,40.50
2023-04-10T01:58:52.173Z,31.20
2023-04-10T02:01:58.683Z,36.23
2023-04-10T02:05:01.834Z,31.77
2023-04-10T02:08:13.713Z,32.23
2023-04-10T02:11:24.241Z,34.33
2023-04-10T02:14:29.349Z,31.07
2023-04-10T02:17:35.716Z,31.73
2023-04-10T02:20:38.825Z,33.77
2023-04-10T02:23:41.493Z,35.03
2023-04-10T02:26:47.788Z,30.80
2023-04-10T02:29:51.482Z,37.47
2023-04-10T02:32:55.828Z,33.27
2023-04-10T02:35:58.466Z,32.77
2023-04-10T02:39:01.090Z,32.03
2023-04-10T02:42:03.870Z,32.90
2023-04-10T02:45:07.904Z,33.47
2023-04-10T02:48:12.003Z,38.40
2023-04-10T02:51:14.749Z,38.77
2023-04-10T02:54:17.326Z,34.20
2023-04-10T02:57:19.933Z,31.00
2023-04-10T03:00:23.481Z,32.60
2023-04-10T03:03:27.674Z,31.97
2023-04-10T03:06:30.554Z,29.63
2023-04-10T03:09:33.123Z,33.40
2023-04-10T03:12:35.764Z,34.70
2023-04-10T03:15:38.984Z,33.37
2023-04-10T03:18:43.057Z,35.40
2023-04-10T03:21:47.132Z,35.40
2023-04-10T03:24:49.733Z,34.57
2023-04-10T03:27:53.089Z,34.83
2023-04-10T03:30:55.651Z,31.70
2023-04-10T03:33:59.667Z,33.00
2023-04-10T03:37:03.070Z,29.93
2023-04-10T03:40:08.167Z,32.20
2023-04-10T03:43:10.864Z,32.80
2023-04-10T03:46:13.473Z,31.80
2023-04-10T03:49:17.516Z,31.60
2023-04-10T03:52:20.350Z,33.03
2023-04-10T03:55:22.983Z,31.30
2023-04-10T03:58:25.648Z,34.67
2023-04-10T04:01:28.376Z,36.07
2023-04-10T04:04:32.367Z,35.67
2023-04-10T04:07:35.099Z,32.77
2023-04-10T04:10:37.712Z,33.83
2023-04-10T04:13:40.283Z,29.87
2023-04-10T04:16:43.200Z,30.57
2023-04-10T04:19:47.162Z,33.20
2023-04-10T04:22:49.760Z,32.33
2023-04-10T04:25:54.258Z,31.97
2023-04-10T04:28:56.843Z,34.97
2023-04-10T04:31:59.465Z,31.93
2023-04-10T04:35:03.534Z,31.73
2023-04-10T04:38:06.111Z,36.43
2023-04-10T04:41:08.730Z,30.17
2023-04-10T04:44:11.362Z,32.57
2023-04-10T04:47:13.969Z,32.80
2023-04-10T04:50:18.106Z,34.60
2023-04-10T04:53:20.968Z,32.23
2023-04-10T04:56:23.617Z,34.57
2023-04-10T04:59:26.306Z,34.00
2023-04-10T05:02:29.048Z,32.33
2023-04-10T05:05:33.138Z,31.40
2023-04-10T05:08:35.725Z,32.70
2023-04-10T05:11:38.332Z,33.33
2023-04-10T05:14:40.893Z,30.40
2023-04-10T05:17:43.542Z,58.97
2023-04-10T05:20:48.515Z,44.27
2023-04-10T05:23:51.174Z,35.80
2023-04-10T05:26:53.783Z,34.43
2023-04-10T05:29:56.362Z,36.63
2023-04-10T05:32:59.065Z,48.13
2023-04-10T05:36:03.391Z,42.33
2023-04-10T05:39:06.208Z,32.63
2023-04-10T05:42:08.892Z,32.97
2023-04-10T05:45:12.037Z,31.27
2023-04-10T05:48:14.749Z,31.80
2023-04-10T05:51:18.700Z,31.97
2023-04-10T05:54:21.353Z,27.23
2023-04-10T05:57:24.613Z,30.00
2023-04-10T06:00:27.373Z,30.23
2023-04-10T06:03:30.944Z,34.57
2023-04-10T06:06:35.099Z,32.17
2023-04-10T06:09:37.688Z,34.97
2023-04-10T06:12:40.458Z,30.80
2023-04-10T06:15:43.085Z,30.33
2023-04-10T06:18:46.482Z,28.33
2023-04-10T06:21:52.473Z,30.07
2023-04-10T06:24:56.475Z,35.77
2023-04-10T06:27:59.317Z,36.10
2023-04-10T06:31:04.204Z,35.47
2023-04-10T06:34:06.853Z,38.10
2023-04-10T06:37:11.100Z,31.93
2023-04-10T06:40:15.361Z,31.60
2023-04-10T06:43:17.971Z,29.83
2023-04-10T06:46:20.969Z,29.33
2023-04-10T06:49:24.247Z,31.83
2023-04-10T06:52:28.405Z,32.40
2023-04-10T06:55:31.123Z,30.80
2023-04-10T06:58:33.749Z,33.20
2023-04-10T07:01:36.642Z,32.33
2023-04-10T07:04:39.231Z,31.03
2023-04-10T07:07:43.835Z,31.87
2023-04-10T07:10:46.398Z,28.57
2023-04-10T07:13:53.704Z,27.10
2023-04-10T07:16:56.556Z,30.23
2023-04-10T07:19:59.258Z,30.57
2023-04-10T07:23:03.214Z,27.43
2023-04-10T07:26:06.497Z,30.30
2023-04-10T07:29:09.374Z,27.77
2023-04-10T07:32:12.015Z,27.97
2023-04-10T07:35:14.892Z,29.73
2023-04-10T07:38:19.319Z,26.90
2023-04-10T07:41:22.206Z,28.50
2023-04-10T07:44:24.849Z,27.77
2023-04-10T07:47:27.517Z,27.23
2023-04-10T07:50:30.446Z,26.93
2023-04-10T07:53:34.419Z,24.93
2023-04-10T07:56:37.019Z,27.13
2023-04-10T07:59:39.626Z,30.53
2023-04-10T08:02:42.382Z,25.40
2023-04-10T08:05:45.199Z,26.63
2023-04-10T08:08:49.238Z,51.37
2023-04-10T08:11:51.838Z,32.70
2023-04-10T08:14:54.723Z,52.47
2023-04-10T08:17:57.356Z,28.17
2023-04-10T08:21:00.020Z,59.93
2023-04-10T08:24:04.954Z,57.23
2023-04-10T08:27:07.570Z,42.97
2023-04-10T08:30:10.873Z,32.77
2023-04-10T08:33:13.484Z,47.93
2023-04-10T08:36:18.974Z,65.07
2023-04-10T08:39:24.018Z,36.70
2023-04-10T08:42:27.326Z,35.50
2023-04-10T08:45:30.054Z,25.57
2023-04-10T08:48:37.010Z,26.37
2023-04-10T08:51:43.898Z,24.00
2023-04-10T08:54:51.807Z,26.47
2023-04-10T08:58:01.229Z,22.83
2023-04-10T09:01:06.501Z,71.33
2023-04-10T09:04:09.161Z,25.27
2023-04-10T09:07:11.757Z,22.43
2023-04-10T09:10:16.659Z,20.17
2023-04-10T09:13:36.403Z,21.77
2023-04-10T09:16:39.031Z,20.57
2023-04-10T09:19:42.286Z,20.13
2023-04-10T09:22:44.910Z,17.63
2023-04-10T09:25:49.964Z,38.87
2023-04-10T09:29:01.775Z,28.53
2023-04-10T09:32:04.448Z,18.13
2023-04-10T09:35:08.564Z,18.73
2023-04-10T09:38:18.556Z,17.17
2023-04-10T09:41:22.547Z,18.03
2023-04-10T09:44:31.562Z,19.13
2023-04-10T09:47:34.252Z,24.00
2023-04-10T09:50:39.990Z,15.67
2023-04-10T09:53:50.247Z,15.13
2023-04-10T09:56:54.981Z,12.87
2023-04-10T09:59:59.549Z,18.33
2023-04-10T10:03:06.612Z,12.60
2023-04-10T10:06:09.698Z,14.13
2023-04-10T10:09:12.609Z,13.43
2023-04-10T10:12:20.235Z,12.57
2023-04-10T10:15:31.802Z,13.73
2023-04-10T10:18:44.864Z,10.73
2023-04-10T10:21:48.362Z,12.30
2023-04-10T10:24:56.485Z,12.67
2023-04-10T10:28:03.814Z,12.23
2023-04-10T10:31:07.292Z,11.77
2023-04-10T10:34:11.003Z,10.77
2023-04-10T10:37:14.139Z,10.77
2023-04-10T10:40:23.845Z,10.10
2023-04-10T10:43:38.900Z,9.70
2023-04-10T10:46:48.996Z,9.97
2023-04-10T10:49:59.372Z,8.70
2023-04-10T10:53:01.969Z,13.37
2023-04-10T10:56:36.064Z,10.17
2023-04-10T10:59:58.246Z,9.07
2023-04-10T11:03:28.687Z,10.45
2023-04-10T11:06:55.155Z,15.23
2023-04-10T11:09:58.044Z,7.80
2023-04-10T11:13:17.029Z,9.52
2023-04-10T11:16:22.354Z,8.70
2023-04-10T11:19:26.098Z,8.93
2023-04-10T11:22:29.285Z,8.00
2023-04-10T11:25:47.723Z,9.80
2023-04-10T11:28:50.540Z,7.55
2023-04-10T11:31:58.867Z,10.23
2023-04-10T11:35:03.619Z,8.13
2023-04-10T11:38:15.006Z,10.50
2023-04-10T11:41:17.614Z,7.78
2023-04-10T11:44:28.831Z,11.05
2023-04-10T11:47:32.843Z,6.90
2023-04-10T11:50:36.553Z,6.32
2023-04-10T11:53:39.663Z,7.13
2023-04-10T11:56:44.106Z,8.35
2023-04-10T11:59:52.045Z,6.65
2023-04-10T12:02:56.150Z,8.13
2023-04-10T12:05:59.030Z,5.78
2023-04-10T12:09:01.733Z,7.72
2023-04-10T12:12:05.653Z,6.22
2023-04-10T12:15:26.452Z,5.70
2023-04-10T12:18:31.290Z,6.00
2023-04-10T12:21:36.501Z,5.85
2023-04-10T12:24:43.581Z,5.75
2023-04-10T12:27:49.778Z,5.43
2023-04-10T12:30:53.823Z,4.90
2023-04-10T12:33:58.494Z,5.22
2023-04-10T12:37:01.117Z,5.07
2023-04-10T12:40:08.134Z,4.63
2023-04-10T12:43:10.754Z,6.40
2023-04-10T12:46:24.832Z,5.35
2023-04-10T12:49:28.872Z,5.32
2023-04-10T12:52:31.521Z,6.43
2023-04-10T12:55:34.291Z,6.80
2023-04-10T12:58:37.034Z,5.50
2023-04-10T13:01:40.657Z,7.22
2023-04-10T13:04:44.808Z,12.98
2023-04-10T13:07:49.149Z,4.50
2023-04-10T13:10:51.763Z,6.17
2023-04-10T13:13:54.387Z,4.40
2023-04-10T13:16:56.985Z,5.13
2023-04-10T13:20:00.911Z,8.57
2023-04-10T13:23:04.281Z,7.32
2023-04-10T13:26:07.115Z,4.88
2023-04-10T13:29:09.704Z,6.38
2023-04-10T13:32:12.285Z,5.22
2023-04-10T13:35:16.467Z,5.78
2023-04-10T13:38:21.200Z,8.20
2023-04-10T13:41:25.394Z,8.82
2023-04-10T13:44:28.243Z,7.00
2023-04-10T13:47:30.933Z,8.30
2023-04-10T13:50:35.255Z,11.00
2023-04-10T13:53:37.871Z,8.17
2023-04-10T13:56:41.134Z,8.07
2023-04-10T13:59:43.745Z,10.47
2023-04-10T14:02:46.771Z,10.63
2023-04-10T14:05:52.586Z,18.43
2023-04-10T14:08:55.349Z,18.10
2023-04-10T14:11:58.593Z,10.77
2023-04-10T14:15:01.187Z,12.57
2023-04-10T14:18:04.168Z,11.03
2023-04-10T14:21:08.564Z,8.90
2023-04-10T14:24:11.174Z,12.47
2023-04-10T14:27:14.059Z,12.17
2023-04-10T14:30:16.642Z,12.83
2023-04-10T14:33:20.254Z,10.03
2023-04-10T14:36:24.313Z,37.50
2023-04-10T14:39:26.954Z,16.20
2023-04-10T14:42:30.044Z,10.27
2023-04-10T14:45:32.763Z,14.87
2023-04-10T14:48:35.517Z,19.37
2023-04-10T14:51:39.601Z,26.30
2023-04-10T14:54:42.186Z,12.70
2023-04-10T14:57:44.802Z,70.83
2023-04-10T15:00:47.576Z,18.67
2023-04-10T15:03:50.387Z,14.57
2023-04-10T15:06:54.359Z,17.80
2023-04-10T15:09:57.728Z,24.53
2023-04-10T15:13:00.310Z,29.27
2023-04-10T15:16:02.889Z,17.57
2023-04-10T15:19:05.854Z,10.90
2023-04-10T15:22:09.806Z,85.20
2023-04-10T15:25:12.786Z,138.43
2023-04-10T15:28:15.385Z,39.53
2023-04-10T15:31:18.034Z,14.87
2023-04-10T15:34:20.772Z,9.30
2023-04-10T15:37:25.282Z,5.23
2023-04-10T15:40:29.348Z,8.43
2023-04-10T15:43:31.984Z,6.80
2023-04-10T15:46:34.669Z,6.40
2023-04-10T15:49:38.751Z,6.90
2023-04-10T15:52:42.975Z,12.87
2023-04-10T15:55:45.720Z,9.07
2023-04-10T15:58:48.638Z,7.47
2023-04-10T16:01:51.290Z,10.40
2023-04-10T16:04:54.077Z,9.90
2023-04-10T16:07:58.338Z,8.67
2023-04-10T16:11:00.927Z,10.30
2023-04-10T16:14:03.494Z,9.43
2023-04-10T16:17:06.272Z,11.67
2023-04-10T16:20:09.604Z,12.27
2023-04-10T16:23:13.600Z,14.33
2023-04-10T16:26:16.235Z,10.83
2023-04-10T16:29:19.819Z,11.70
2023-04-10T16:32:23.061Z,20.37
2023-04-10T16:35:25.738Z,10.90
2023-04-10T16:38:29.706Z,13.10
2023-04-10T16:41:32.274Z,14.30
2023-04-10T16:44:34.879Z,9.73
2023-04-10T16:47:37.490Z,9.90
2023-04-10T16:50:40.076Z,9.27
2023-04-10T16:53:44.511Z,10.27
2023-04-10T16:56:47.109Z,8.87
2023-04-10T16:59:49.706Z,8.20
2023-04-10T17:02:52.478Z,9.13
2023-04-10T17:05:55.138Z,9.37
2023-04-10T17:08:59.128Z,8.90
2023-04-10T17:12:01.911Z,8.80
2023-04-10T17:15:05.133Z,10.73
2023-04-10T17:18:07.818Z,8.07
2023-04-10T17:21:12.990Z,7.63
2023-04-10T17:24:17.340Z,9.60
2023-04-10T17:27:20.041Z,29.50
2023-04-10T17:30:22.645Z,17.43
2023-04-10T17:33:25.314Z,22.80
2023-04-10T17:36:28.016Z,22.73
2023-04-10T17:39:31.981Z,20.40
2023-04-10T17:42:34.569Z,21.23
2023-04-10T17:45:38.167Z,110.17
2023-04-10T17:48:40.857Z,97.30
2023-04-10T17:51:43.475Z,68.50
2023-04-10T17:54:47.450Z,17.40
2023-04-10T17:57:50.085Z,17.40
2023-04-10T18:00:52.734Z,33.53
2023-04-10T18:03:55.426Z,11.67
2023-04-10T18:06:58.063Z,8.87
2023-04-10T18:10:01.991Z,10.07
2023-04-10T18:13:04.612Z,11.17
2023-04-10T18:16:08.462Z,8.73
2023-04-10T18:19:11.156Z,9.57
2023-04-10T18:22:13.737Z,8.60
2023-04-10T18:25:17.960Z,9.13
2023-04-10T18:28:20.695Z,8.30
2023-04-10T18:31:23.317Z,9.93
2023-04-10T18:34:25.963Z,11.53
2023-04-10T18:37:28.585Z,25.47
2023-04-10T18:40:34.498Z,19.20
2023-04-10T18:43:38.366Z,49.90
2023-04-10T18:46:46.348Z,23.97
2023-04-10T18:49:51.230Z,35.07
2023-04-10T18:52:54.029Z,47.10
2023-04-10T18:55:57.953Z,11.50
2023-04-10T18:59:00.553Z,11.57
2023-04-10T19:02:03.464Z,12.90
2023-04-10T19:05:06.948Z,68.17
2023-04-10T19:08:13.993Z,68.07
2023-04-10T19:11:18.734Z,60.13
2023-04-10T19:14:21.370Z,35.60
2023-04-10T19:17:24.875Z,15.27
2023-04-10T19:20:50.519Z,12.07
2023-04-10T19:23:50.535Z,10.53
2023-04-10T19:26:56.324Z,11.73
2023-04-10T19:29:59.135Z,9.27
2023-04-10T19:33:01.838Z,10.65
2023-04-10T19:36:06.862Z,9.90
2023-04-10T19:39:10.747Z,9.00
2023-04-10T19:42:14.737Z,10.73
2023-04-10T19:45:17.353Z,10.07
2023-04-10T19:48:20.134Z,9.10
2023-04-10T19:51:22.781Z,9.87
2023-04-10T19:54:25.564Z,9.63
2023-04-10T19:57:29.534Z,9.90
2023-04-10T20:00:32.359Z,9.60
2023-04-10T20:03:36.355Z,8.90
2023-04-10T20:06:39.202Z,10.97
2023-04-10T20:09:41.801Z,10.73
2023-04-10T20:12:45.742Z,10.70
2023-04-10T20:15:48.657Z,12.33
2023-04-10T20:18:52.186Z,10.50
2023-04-10T20:21:55.058Z,9.67
2023-04-10T20:24:57.725Z,10.17
2023-04-10T20:28:01.642Z,8.73
2023-04-10T20:31:04.328Z,9.10
2023-04-10T20:34:06.954Z,8.70
2023-04-10T20:37:09.630Z,9.30
2023-04-10T20:40:12.592Z,11.00
2023-04-10T20:43:18.549Z,33.10
2023-04-10T20:46:21.456Z,21.23
2023-04-10T20:49:25.105Z,30.37
2023-04-10T20:52:27.724Z,12.23
2023-04-10T20:55:30.451Z,49.50
2023-04-10T20:58:34.430Z,18.00
2023-04-10T21:01:37.170Z,14.30
2023-04-10T21:04:39.946Z,8.20
2023-04-10T21:07:42.526Z,8.57
2023-04-10T21:10:45.813Z,8.97
2023-04-10T21:13:49.879Z,10.00
2023-04-10T21:16:52.561Z,7.20
2023-04-10T21:19:55.250Z,8.07
2023-04-10T21:22:58.016Z,8.07
2023-04-10T21:26:01.501Z,8.17
2023-04-10T21:29:05.517Z,10.70
2023-04-10T21:32:08.244Z,6.33
2023-04-10T21:35:11.136Z,7.00
2023-04-10T21:38:13.746Z,7.50
2023-04-10T21:41:16.361Z,7.10
2023-04-10T21:44:21.002Z,9.20
2023-04-10T21:47:23.578Z,8.13
2023-04-10T21:50:26.300Z,8.43
2023-04-10T21:53:28.904Z,8.77
2023-04-10T21:56:31.474Z,6.93
2023-04-10T21:59:35.741Z,8.10
2023-04-10T22:02:38.431Z,10.47
2023-04-10T22:05:41.289Z,7.20
2023-04-10T22:08:44.573Z,6.77
2023-04-10T22:11:47.195Z,6.43
2023-04-10T22:14:52.052Z,6.00
2023-04-10T22:17:54.633Z,5.17
2023-04-10T22:20:57.245Z,5.37
2023-04-10T22:23:59.852Z,5.93
2023-04-10T22:27:02.456Z,9.07
2023-04-10T22:30:09.603Z,6.50
2023-04-10T22:33:12.787Z,7.43
2023-04-10T22:36:15.382Z,5.33
2023-04-10T22:39:17.982Z,10.47
2023-04-10T22:42:20.569Z,6.00
2023-04-10T22:45:24.495Z,5.20
2023-04-10T22:48:27.102Z,6.30
2023-04-10T22:51:29.838Z,5.23
2023-04-10T22:54:32.483Z,5.97
2023-04-10T22:57:35.244Z,7.27
2023-04-10T23:00:39.202Z,5.53
2023-04-10T23:03:41.906Z,6.10
2023-04-10T23:06:44.485Z,5.30
2023-04-10T23:09:47.065Z,7.03
2023-04-10T23:12:49.708Z,7.37
2023-04-10T23:15:55.026Z,6.10
2023-04-10T23:18:57.660Z,5.87
2023-04-10T23:22:00.423Z,6.40
2023-04-10T23:25:02.994Z,5.87
2023-04-10T23:28:06.012Z,5.70
2023-04-10T23:31:10.331Z,5.87
2023-04-10T23:34:12.976Z,7.50
2023-04-10T23:37:15.566Z,8.10
2023-04-10T23:40:19.000Z,6.23
2023-04-10T23:43:21.640Z,8.97
2023-04-10T23:46:25.631Z,9.43
2023-04-10T23:49:28.266Z,5.67
2023-04-10T23:52:30.876Z,7.77
2023-04-10T23:55:33.449Z,6.17
2023-04-10T23:58:36.047Z,5.73
